Time;durP1;ratioP1;P1;durP2;ratioP2;P2;SDS_P1;SDS_P2;PMS_P1;PMS_P2;Temp;Humidity;BMP_temperature;BMP_pressure;BME280_temperature;BME280_humidity;BME280_pressure;Samples;Min_cycle;Max_cycle;Signal;HPM_P1;HPM_P2
2021/08/09 00:02:10;;;;;;;4.45;2.88;;;;;;;13.21;100.00;100795.44;5030446;28;20068;-87
2021/08/09 00:04:39;;;;;;;3.53;2.95;;;;;;;13.19;100.00;100791.03;5005572;28;20037;-86
2021/08/09 00:07:10;;;;;;;4.15;3.20;;;;;;;13.21;100.00;100797.25;5022861;28;20124;-86
2021/08/09 00:09:37;;;;;;;4.25;2.72;;;;;;;13.14;100.00;100795.63;5026715;28;20486;-86
2021/08/09 00:12:05;;;;;;;3.45;3.00;;;;;;;13.11;100.00;100799.22;5007728;28;20041;-86
2021/08/09 00:14:31;;;;;;;5.32;3.15;;;;;;;13.07;100.00;100805.53;5022318;28;20041;-85
2021/08/09 00:16:58;;;;;;;4.95;2.92;;;;;;;13.05;100.00;100802.06;5008688;28;20474;-86
2021/08/09 00:19:25;;;;;;;3.30;3.00;;;;;;;13.06;100.00;100810.91;5012408;28;20054;-86
2021/08/09 00:21:52;;;;;;;3.47;2.70;;;;;;;13.03;100.00;100811.88;5011818;28;20045;-85
2021/08/09 00:24:18;;;;;;;4.07;3.03;;;;;;;12.99;100.00;100812.84;5025770;28;20099;-86
2021/08/09 00:26:45;;;;;;;3.83;3.15;;;;;;;13.00;100.00;100805.75;5012964;28;20496;-86
2021/08/09 00:29:12;;;;;;;3.30;2.80;;;;;;;13.00;100.00;100809.28;5022943;28;20056;-85
2021/08/09 00:31:39;;;;;;;5.20;2.63;;;;;;;12.93;100.00;100807.72;5034971;28;20438;-87
2021/08/09 00:34:05;;;;;;;5.28;3.38;;;;;;;12.95;100.00;100817.38;5027496;28;20514;-87
2021/08/09 00:36:32;;;;;;;3.63;2.28;;;;;;;12.89;100.00;100819.31;5016436;28;20048;-86
2021/08/09 00:38:58;;;;;;;4.15;2.90;;;;;;;12.87;100.00;100818.50;5024880;28;20041;-86
2021/08/09 00:41:25;;;;;;;4.50;2.85;;;;;;;12.89;100.00;100816.66;5017515;28;20049;-86
2021/08/09 00:43:52;;;;;;;3.47;2.72;;;;;;;12.86;100.00;100814.09;5030678;28;20049;-86
2021/08/09 00:46:29;;;;;;;3.35;2.50;;;;;;;12.79;100.00;100810.75;5013810;28;20041;-85
2021/08/09 00:48:56;;;;;;;4.28;2.70;;;;;;;12.76;100.00;100820.56;5031446;28;20458;-86
2021/08/09 00:51:23;;;;;;;3.45;2.40;;;;;;;12.77;100.00;100819.63;5021642;28;20049;-86
2021/08/09 00:53:52;;;;;;;3.83;2.70;;;;;;;12.70;100.00;100818.09;5015726;28;20047;-86
2021/08/09 00:56:19;;;;;;;3.75;2.75;;;;;;;12.67;100.00;100830.50;5024845;28;20071;-87
2021/08/09 00:58:46;;;;;;;4.30;2.53;;;;;;;12.64;100.00;100824.41;5028765;28;20037;-85
2021/08/09 01:01:14;;;;;;;5.15;3.20;;;;;;;12.59;100.00;100827.16;5028919;28;20039;-87
2021/08/09 01:03:44;;;;;;;3.28;2.50;;;;;;;12.61;100.00;100835.06;5012319;28;20040;-86
2021/08/09 01:06:15;;;;;;;4.35;2.72;;;;;;;12.57;100.00;100823.69;5027177;28;20050;-87
2021/08/09 01:09:24;;;;;;;3.45;2.90;;;;;;;12.53;100.00;100831.78;5031911;28;20114;-87
2021/08/09 01:12:00;;;;;;;5.70;2.72;;;;;;;12.48;100.00;100834.53;5030223;28;20044;-86
2021/08/09 01:14:54;;;;;;;4.28;2.95;;;;;;;12.49;100.00;100835.41;5019517;28;20053;-85
2021/08/09 01:17:21;;;;;;;2.95;2.55;;;;;;;12.46;100.00;100832.84;5015866;28;20071;-87
2021/08/09 01:20:02;;;;;;;2.75;2.20;;;;;;;12.46;100.00;100832.84;5020384;28;20053;-87
2021/08/09 01:22:45;;;;;;;4.47;2.70;;;;;;;12.35;100.00;100836.59;5041268;28;20048;-86
2021/08/09 01:25:30;;;;;;;3.20;2.40;;;;;;;12.31;100.00;100831.44;5026995;28;20056;-86
2021/08/09 01:27:59;;;;;;;4.00;2.67;;;;;;;12.29;100.00;100838.56;5029793;28;20041;-87
2021/08/09 01:30:26;;;;;;;5.70;2.40;;;;;;;12.25;100.00;100836.88;5031086;28;20040;-86
2021/08/09 01:32:54;;;;;;;3.30;2.60;;;;;;;12.19;100.00;100834.38;5012157;28;20067;-87
2021/08/09 01:35:24;;;;;;;3.08;2.50;;;;;;;12.21;100.00;100844.06;5023010;28;20085;-88
2021/08/09 01:37:55;;;;;;;3.30;2.47;;;;;;;12.14;100.00;100846.88;5013920;28;20037;-88
2021/08/09 01:40:22;;;;;;;2.90;2.10;;;;;;;12.13;100.00;100855.72;5027614;28;20053;-87
2021/08/09 01:42:49;;;;;;;3.25;2.50;;;;;;;12.14;100.00;100846.88;5014376;28;20042;-87
2021/08/09 01:45:17;;;;;;;4.78;2.50;;;;;;;12.11;100.00;100842.53;5008482;28;20064;-87
2021/08/09 01:47:55;;;;;;;2.50;2.25;;;;;;;12.01;100.00;100844.50;5015475;28;20048;-87
2021/08/09 01:50:22;;;;;;;3.83;2.65;;;;;;;12.02;100.00;100842.72;5038086;28;20041;-87
2021/08/09 01:52:49;;;;;;;3.72;2.20;;;;;;;12.01;100.00;100843.63;5012236;28;20038;-85
2021/08/09 01:55:17;;;;;;;3.15;2.35;;;;;;;12.00;100.00;100847.19;5008581;28;20060;-86
2021/08/09 01:57:44;;;;;;;3.88;2.58;;;;;;;11.97;100.00;100858.72;5007724;28;20128;-88
2021/08/09 02:00:14;;;;;;;2.90;2.53;;;;;;;11.91;100.00;100861.50;5029904;28;20055;-86
2021/08/09 02:02:41;;;;;;;10.82;2.70;;;;;;;11.95;100.00;100857.91;5012265;28;20064;-88
2021/08/09 02:05:09;;;;;;;3.33;2.28;;;;;;;11.84;100.00;100866.06;5010840;28;20041;-88
2021/08/09 02:07:40;;;;;;;3.20;2.20;;;;;;;11.81;100.00;100863.50;5029020;28;20043;-87
2021/08/09 02:10:11;;;;;;;3.30;2.08;;;;;;;11.75;100.00;100871.53;5011610;28;20056;-86
2021/08/09 02:12:43;;;;;;;3.80;2.40;;;;;;;11.78;100.00;100874.13;5026995;28;20045;-87
2021/08/09 02:15:11;;;;;;;4.20;2.50;;;;;;;11.73;100.00;100876.00;5025654;28;20053;-87
2021/08/09 02:17:50;;;;;;;3.05;2.20;;;;;;;11.70;100.00;100872.56;5028943;28;20053;-87
2021/08/09 02:20:23;;;;;;;5.10;2.50;;;;;;;11.69;100.00;100873.47;5010448;28;20043;-88
2021/08/09 02:22:58;;;;;;;4.20;2.53;;;;;;;11.62;100.00;100872.72;5008187;28;20053;-88
2021/08/09 02:25:27;;;;;;;3.83;2.22;;;;;;;11.57;100.00;100877.22;5010996;28;20128;-88
2021/08/09 02:27:58;;;;;;;3.05;2.38;;;;;;;11.50;100.00;100884.41;5010034;28;20414;-88
2021/08/09 02:30:26;;;;;;;3.88;2.33;;;;;;;11.43;100.00;100892.50;5006995;28;20049;-88
2021/08/09 02:32:53;;;;;;;5.50;2.88;;;;;;;11.41;100.00;100891.69;5027799;28;20049;-87
2021/08/09 02:35:20;;;;;;;3.08;2.15;;;;;;;11.43;100.00;100895.16;5015508;28;20052;-87
2021/08/09 02:37:47;;;;;;;2.47;2.13;;;;;;;11.39;100.00;100893.50;5011131;28;20045;-87
2021/08/09 02:40:14;;;;;;;3.20;2.35;;;;;;;11.37;100.00;100896.16;5008903;28;20048;-88
2021/08/09 02:42:41;;;;;;;4.30;2.55;;;;;;;11.36;100.00;100894.44;5029745;28;20485;-87
2021/08/09 02:45:08;;;;;;;4.13;2.42;;;;;;;11.32;100.00;100897.16;5025924;28;20100;-86
2021/08/09 02:47:37;;;;;;;2.72;2.30;;;;;;;11.35;100.00;100897.97;5008436;28;20509;-88
2021/08/09 02:50:05;;;;;;;3.80;2.35;;;;;;;11.34;100.00;100900.63;5025263;28;20045;-88
2021/08/09 02:52:32;;;;;;;3.65;2.22;;;;;;;11.31;100.00;100903.34;5016351;28;20045;-88
2021/08/09 02:55:00;;;;;;;5.43;2.70;;;;;;;11.35;100.00;100908.56;5002239;28;20049;-85
2021/08/09 02:57:28;;;;;;;2.83;2.00;;;;;;;11.34;100.00;100906.78;5038850;28;20483;-85
2021/08/09 02:59:55;;;;;;;4.85;2.35;;;;;;;11.31;100.00;100911.28;5042741;28;20048;-85
2021/08/09 03:02:22;;;;;;;3.35;2.42;;;;;;;11.27;100.00;100919.28;5028114;28;20099;-85
2021/08/09 03:04:50;;;;;;;4.03;2.20;;;;;;;11.26;100.00;100922.81;5009271;28;20045;-85
2021/08/09 03:07:17;;;;;;;3.13;2.20;;;;;;;11.21;100.00;100924.69;5024885;28;20487;-85
2021/08/09 03:09:44;;;;;;;6.03;2.25;;;;;;;11.19;100.00;100923.84;5028314;28;20043;-85
2021/08/09 03:12:16;;;;;;;3.13;2.15;;;;;;;11.16;100.00;100925.66;5013513;28;20044;-85
2021/08/09 03:14:48;;;;;;;3.40;2.20;;;;;;;11.11;100.00;100928.41;5007921;28;20441;-85
2021/08/09 03:17:15;;;;;;;2.40;1.90;;;;;;;11.11;100.00;100928.41;5028195;28;20045;-85
2021/08/09 03:19:42;;;;;;;2.63;1.83;;;;;;;11.03;100.00;100926.81;5008976;28;20123;-85
2021/08/09 03:22:11;;;;;;;3.17;1.80;;;;;;;11.05;100.00;100919.72;5025203;28;20037;-85
2021/08/09 03:24:39;;;;;;;2.78;2.00;;;;;;;11.03;100.00;100924.16;5010404;28;20037;-85
2021/08/09 09:42:34;;;;;;;2.30;1.70;;;;;;;20.60;61.49;101069.44;5084422;23;20075;-85
2021/08/09 09:45:18;;;;;;;4.43;2.22;;;;;;;20.64;59.59;101071.03;5039256;28;20395;-85
2021/08/09 09:47:45;;;;;;;3.70;1.98;;;;;;;20.58;60.22;101068.66;5030606;28;20052;-84
2021/08/09 09:50:26;;;;;;;3.60;1.98;;;;;;;20.55;60.69;101077.78;5041466;28;20051;-85
2021/08/09 09:52:53;;;;;;;3.00;1.65;;;;;;;20.60;61.53;101070.34;5036006;28;20127;-85
2021/08/09 09:55:19;;;;;;;2.47;1.70;;;;;;;20.60;62.08;101064.06;5002541;28;20522;-87
2021/08/09 09:57:47;;;;;;;4.50;1.73;;;;;;;20.58;62.00;101074.91;5023718;28;20048;-84
2021/08/09 10:00:16;;;;;;;5.90;2.20;;;;;;;20.67;58.53;101074.38;5024361;28;20042;-83
2021/08/09 10:02:47;;;;;;;4.75;2.35;;;;;;;20.71;59.02;101073.28;5039659;28;20644;-85
2021/08/09 10:05:16;;;;;;;3.03;2.38;;;;;;;20.75;58.13;101074.81;5005208;28;20056;-84
2021/08/09 10:07:45;;;;;;;4.05;2.00;;;;;;;20.81;57.08;101076.31;4993739;28;20083;-82
2021/08/09 10:10:13;;;;;;;2.53;1.75;;;;;;;20.73;58.46;101084.78;5005452;28;20049;-85
2021/08/09 10:12:41;;;;;;;4.07;2.03;;;;;;;20.69;60.01;101082.38;5040363;28;20037;-84
2021/08/09 10:15:08;;;;;;;2.47;1.80;;;;;;;20.67;60.82;101090.50;5006274;28;20045;-82
2021/08/09 10:17:36;;;;;;;3.45;2.22;;;;;;;20.63;61.97;101080.03;5012769;28;20042;-83
2021/08/09 10:20:10;;;;;;;3.47;1.92;;;;;;;20.68;63.13;101083.31;5016977;28;20041;-84
2021/08/09 10:22:38;;;;;;;3.95;2.00;;;;;;;20.68;60.80;101088.69;5026792;28;20049;-84
2021/08/09 10:25:06;;;;;;;3.42;2.03;;;;;;;20.62;60.31;101083.66;5029417;28;20042;-83
2021/08/09 10:27:53;;;;;;;3.63;1.90;;;;;;;20.59;60.50;101079.31;5003869;28;20057;-84
2021/08/09 10:30:21;;;;;;;3.45;2.05;;;;;;;20.48;60.76;101076.38;5046181;28;20099;-85
2021/08/09 10:32:53;;;;;;;3.40;1.80;;;;;;;20.55;63.03;101075.09;5018806;28;20040;-83
2021/08/09 10:35:38;;;;;;;3.97;1.98;;;;;;;20.64;62.73;101079.94;5017825;28;20102;-84
2021/08/09 10:38:39;;;;;;;3.85;1.95;;;;;;;20.76;60.55;101076.56;5036962;28;20132;-83
2021/08/09 10:41:05;;;;;;;3.05;2.00;;;;;;;21.05;60.82;101082.97;5034406;28;20040;-84
2021/08/09 10:43:32;;;;;;;2.92;1.80;;;;;;;21.29;58.08;101080.72;5047695;28;20049;-84
2021/08/09 10:45:59;;;;;;;7.28;2.42;;;;;;;21.35;58.62;101072.28;5032171;28;20517;-81
2021/08/09 10:48:47;;;;;;;2.85;1.98;;;;;;;21.53;57.02;101073.03;5029528;28;20045;-82
2021/08/09 10:51:14;;;;;;;3.80;2.35;;;;;;;21.70;58.68;101069.34;5021548;28;20440;-82
2021/08/09 10:53:46;;;;;;;2.25;1.60;;;;;;;21.93;57.40;101065.22;5017804;28;20045;-82
2021/08/09 10:56:46;;;;;;;3.92;1.92;;;;;;;22.26;56.76;101066.81;5014902;28;20549;-83
2021/08/09 10:59:41;;;;;;;5.25;2.13;;;;;;;22.42;54.71;101052.31;5004465;28;20040;-82
2021/08/09 11:02:16;;;;;;;3.28;2.17;;;;;;;22.42;55.11;101063.06;5050014;28;20537;-82
2021/08/09 11:05:12;;;;;;;2.40;1.90;;;;;;;22.63;54.92;101057.28;5017994;28;20051;-84
2021/08/09 11:07:39;;;;;;;4.22;1.80;;;;;;;22.62;55.30;101055.56;5031389;28;20052;-84
2021/08/09 11:10:07;;;;;;;4.18;1.85;;;;;;;22.58;54.33;101052.19;5024456;28;20124;-85
2021/08/09 11:12:57;;;;;;;7.50;2.33;;;;;;;22.48;53.91;101051.91;5026966;28;20655;-84
2021/08/09 11:15:24;;;;;;;3.33;1.90;;;;;;;22.36;54.57;101060.75;5032393;28;20041;-81
2021/08/09 11:17:53;;;;;;;3.60;2.00;;;;;;;22.37;53.25;101051.75;5007204;28;20049;-82
2021/08/09 11:20:25;;;;;;;2.72;1.75;;;;;;;22.48;57.57;101057.31;5017343;28;20045;-83
2021/08/09 11:23:03;;;;;;;5.63;2.22;;;;;;;22.42;54.59;101059.53;5018481;28;20047;-84
2021/08/09 11:25:41;;;;;;;4.35;2.15;;;;;;;22.45;56.07;101057.50;5029373;28;20122;-83
2021/08/09 11:28:17;;;;;;;3.33;1.90;;;;;;;22.41;53.63;101050.56;5028643;28;20091;-85
2021/08/09 11:30:48;;;;;;;3.28;2.05;;;;;;;22.32;54.42;101061.06;5012626;28;20420;-87
2021/08/09 11:33:25;;;;;;;5.20;1.70;;;;;;;22.36;54.92;101057.22;5035964;28;20067;-83
2021/08/09 11:35:55;;;;;;;3.13;1.77;;;;;;;22.24;52.58;101055.31;5017497;28;20056;-83
2021/08/09 11:38:23;;;;;;;13.48;3.63;;;;;;;22.13;51.41;101066.75;4998388;28;20502;-85
2021/08/09 11:40:55;;;;;;;4.90;2.03;;;;;;;22.07;53.90;101062.59;5026394;28;20490;-86
2021/08/09 11:43:27;;;;;;;2.92;1.80;;;;;;;22.09;52.00;101060.66;5029299;28;20790;-83
2021/08/09 11:45:55;;;;;;;4.15;2.17;;;;;;;22.09;52.93;101060.66;5025444;28;20045;-84
2021/08/09 11:48:28;;;;;;;5.85;2.28;;;;;;;22.21;54.08;101063.59;5034878;28;20135;-84
2021/08/09 11:50:57;;;;;;;5.03;2.25;;;;;;;22.29;52.16;101072.03;5015086;28;20485;-84
2021/08/09 11:53:47;;;;;;;3.03;1.85;;;;;;;22.29;52.29;101066.66;5020861;28;20041;-86
2021/08/09 11:56:19;;;;;;;4.20;2.20;;;;;;;22.20;52.45;101062.72;5030433;28;20503;-82
2021/08/09 11:58:46;;;;;;;2.97;2.03;;;;;;;22.26;52.80;101067.69;5004664;28;20067;-83
2021/08/09 12:01:34;;;;;;;2.13;1.60;;;;;;;22.37;51.89;101057.13;5026946;28;20079;-83
2021/08/09 12:04:25;;;;;;;4.07;1.98;;;;;;;22.52;51.70;101059.78;5024806;28;20392;-84
2021/08/09 12:07:24;;;;;;;4.32;2.17;;;;;;;22.69;51.43;101063.13;5041944;28;20033;-84
2021/08/09 12:09:56;;;;;;;5.35;1.83;;;;;;;22.89;52.47;101061.88;5025049;28;20041;-84
2021/08/09 12:12:23;;;;;;;3.25;1.90;;;;;;;22.91;51.43;101068.03;5006041;28;20241;-84
2021/08/09 12:15:02;;;;;;;4.28;1.90;;;;;;;22.90;53.46;101071.69;5002169;28;20045;-83
2021/08/09 12:17:29;;;;;;;3.42;1.80;;;;;;;22.86;51.98;101058.50;5018663;28;20045;-82
2021/08/09 12:19:56;;;;;;;5.72;2.22;;;;;;;22.70;53.27;101058.59;5012203;28;20063;-83
2021/08/09 12:22:30;;;;;;;3.58;2.08;;;;;;;22.73;53.75;101064.69;5013775;28;20061;-83
2021/08/09 12:25:00;;;;;;;3.67;2.13;;;;;;;22.74;54.40;101063.72;5031327;28;20053;-83
2021/08/09 12:27:28;;;;;;;3.53;2.17;;;;;;;22.68;52.74;101056.00;5013495;28;20053;-85
2021/08/09 12:30:07;;;;;;;3.67;2.10;;;;;;;22.74;52.13;101052.06;5026012;28;20505;-84
2021/08/09 12:32:35;;;;;;;3.72;1.90;;;;;;;22.77;52.65;101050.03;5033834;28;20037;-82
2021/08/09 12:35:04;;;;;;;3.92;2.10;;;;;;;22.77;53.84;101054.56;5026611;28;20060;-81
2021/08/09 12:37:30;;;;;;;3.47;1.83;;;;;;;22.76;50.81;101050.13;5002714;28;20100;-84
2021/08/09 12:40:09;;;;;;;2.70;2.00;;;;;;;22.73;52.73;101053.03;5030605;28;20281;-84
2021/08/09 12:42:35;;;;;;;5.55;2.13;;;;;;;22.79;53.77;101054.47;5001469;28;20042;-85
2021/08/09 12:45:02;;;;;;;4.95;1.90;;;;;;;22.66;51.88;101055.25;5026879;28;20057;-82
2021/08/09 12:47:32;;;;;;;4.47;2.00;;;;;;;22.62;52.02;101047.50;5016856;28;20148;-82
2021/08/09 12:49:59;;;;;;;3.95;2.35;;;;;;;22.67;52.23;101053.44;5012791;28;20041;-83
2021/08/09 12:52:26;;;;;;;3.28;1.88;;;;;;;22.62;52.16;101061.81;5022463;28;20486;-85
2021/08/09 12:54:52;;;;;;;5.07;2.20;;;;;;;22.54;52.80;101060.59;5015386;28;20052;-84
2021/08/09 12:57:19;;;;;;;3.75;2.10;;;;;;;22.53;52.95;101058.81;5033968;28;20048;-84
2021/08/09 12:59:46;;;;;;;3.40;1.90;;;;;;;22.50;51.64;101059.91;5017050;28;20036;-85
2021/08/09 13:02:12;;;;;;;3.97;1.98;;;;;;;22.45;53.78;101051.25;5010557;28;20041;-83
2021/08/09 13:04:39;;;;;;;2.97;2.05;;;;;;;22.41;53.10;101061.34;5010629;28;20049;-84
2021/08/09 13:07:06;;;;;;;3.25;1.90;;;;;;;22.46;53.60;101061.06;5009184;28;20480;-84
2021/08/09 13:09:33;;;;;;;4.63;2.55;;;;;;;22.51;52.60;101063.44;5006063;28;20103;-83
2021/08/09 13:12:00;;;;;;;8.60;2.20;;;;;;;22.42;51.66;101054.13;5032626;28;20406;-84
2021/08/09 13:14:26;;;;;;;3.35;1.98;;;;;;;22.37;51.81;101058.97;5025911;28;20147;-84
2021/08/09 13:16:53;;;;;;;3.85;1.90;;;;;;;22.35;51.53;101056.34;5026510;28;20041;-84
2021/08/09 13:19:20;;;;;;;2.70;1.90;;;;;;;22.33;52.75;101052.88;4998946;28;20060;-84
2021/08/09 13:21:47;;;;;;;2.63;1.80;;;;;;;22.51;52.78;101056.25;5031234;28;20044;-83
2021/08/09 13:24:13;;;;;;;6.50;2.55;;;;;;;22.63;52.29;101054.59;5026731;28;20041;-83
2021/08/09 13:26:40;;;;;;;4.63;2.55;;;;;;;22.67;53.13;101056.97;5046384;28;20140;-83
2021/08/09 13:29:07;;;;;;;3.30;2.00;;;;;;;22.71;50.63;101046.91;5016120;28;20052;-83
2021/08/09 13:31:33;;;;;;;4.55;2.30;;;;;;;22.75;51.46;101043.03;5029526;28;20053;-83
2021/08/09 13:34:00;;;;;;;2.55;1.85;;;;;;;22.70;50.14;101043.34;5005322;28;20501;-85
2021/08/09 13:36:27;;;;;;;4.13;1.92;;;;;;;22.73;50.26;101050.34;5013455;28;20060;-81
2021/08/09 13:38:54;;;;;;;4.88;2.00;;;;;;;22.79;50.89;101046.41;5024784;28;20410;-83
2021/08/09 13:41:21;;;;;;;3.28;1.73;;;;;;;22.81;49.79;101037.25;5048374;28;20052;-84
2021/08/09 13:43:47;;;;;;;3.63;2.05;;;;;;;22.95;51.86;101039.03;5015001;28;20044;-84
2021/08/09 13:46:14;;;;;;;3.92;2.10;;;;;;;23.08;50.56;101041.81;4999640;28;20092;-83
2021/08/09 13:48:48;;;;;;;2.92;2.25;;;;;;;23.11;51.40;101030.81;5028739;28;20045;-82
2021/08/09 13:51:15;;;;;;;2.47;1.80;;;;;;;23.30;49.63;101031.31;5018639;28;20064;-87
2021/08/09 13:53:42;;;;;;;2.83;1.98;;;;;;;23.36;50.60;101036.28;5034762;28;20045;-84
2021/08/09 13:56:08;;;;;;;3.70;1.88;;;;;;;23.24;47.99;101032.59;5033029;28;20045;-83
2021/08/09 13:58:38;;;;;;;3.38;1.92;;;;;;;23.25;47.93;101026.22;5001142;28;20701;-84
2021/08/09 14:01:05;;;;;;;3.78;2.03;;;;;;;23.30;47.56;101023.22;5032738;28;20052;-82
2021/08/09 14:03:34;;;;;;;4.35;2.10;;;;;;;23.36;48.57;101030.00;5038373;28;20084;-83
2021/08/09 14:06:01;;;;;;;3.05;2.00;;;;;;;23.40;46.32;101024.31;5040198;28;20048;-82
2021/08/09 14:08:28;;;;;;;3.42;2.22;;;;;;;23.36;46.95;101033.56;5030588;28;20670;-83
2021/08/09 14:10:54;;;;;;;3.92;1.88;;;;;;;23.45;47.31;101026.69;5025307;28;20052;-82
2021/08/09 14:13:24;;;;;;;4.75;2.05;;;;;;;23.40;45.10;101024.31;5033440;28;20102;-83
2021/08/09 14:15:52;;;;;;;3.40;1.90;;;;;;;23.46;44.76;101020.34;5020935;28;20038;-82
2021/08/09 14:18:18;;;;;;;3.35;1.77;;;;;;;23.53;45.63;101011.72;5043273;28;20050;-81
2021/08/09 14:20:45;;;;;;;2.53;1.95;;;;;;;23.67;45.42;101013.50;5001736;28;20041;-83
2021/08/09 14:23:12;;;;;;;3.95;2.00;;;;;;;23.93;46.32;101013.50;5021342;28;20106;-83
2021/08/09 14:25:38;;;;;;;4.05;1.75;;;;;;;24.06;45.39;101008.97;5029013;28;20037;-82
2021/08/09 14:28:05;;;;;;;4.43;1.80;;;;;;;23.77;44.33;101019.09;5015906;28;20057;-81
2021/08/09 14:30:32;;;;;;;3.95;1.77;;;;;;;23.51;44.44;101020.88;5025434;28;20045;-83
2021/08/09 14:33:00;;;;;;;3.95;1.60;;;;;;;23.31;44.60;101019.56;5008927;28;20037;-80
2021/08/09 14:35:29;;;;;;;2.95;1.80;;;;;;;23.03;45.71;101015.13;5025700;28;20064;-81
2021/08/09 14:37:56;;;;;;;2.28;1.88;;;;;;;23.06;46.83;101025.75;5014345;28;20143;-82
2021/08/09 14:40:23;;;;;;;3.08;2.05;;;;;;;23.12;46.08;101019.94;5013949;28;20041;-81
2021/08/09 14:42:49;;;;;;;4.07;1.90;;;;;;;23.09;46.27;101020.13;5024123;28;20045;-82
2021/08/09 14:45:17;;;;;;;4.68;1.92;;;;;;;23.36;47.21;101022.78;5014320;28;20048;-84
2021/08/09 14:47:43;;;;;;;2.53;1.90;;;;;;;23.56;46.71;101021.44;5003460;28;20399;-82
2021/08/09 14:50:11;;;;;;;3.47;2.00;;;;;;;23.87;43.80;101020.19;5003211;28;20400;-81
2021/08/09 14:52:38;;;;;;;3.60;2.08;;;;;;;24.14;45.31;101025.47;4996750;28;20040;-82
2021/08/09 14:55:05;;;;;;;3.53;2.08;;;;;;;24.23;44.00;101016.72;5014330;28;20040;-81
2021/08/09 14:57:31;;;;;;;4.35;1.90;;;;;;;24.30;45.52;101022.53;5041273;28;20041;-82
2021/08/09 14:59:58;;;;;;;2.42;1.90;;;;;;;24.46;45.31;101019.59;5027795;28;20713;-82
2021/08/09 15:02:25;;;;;;;2.85;1.80;;;;;;;24.60;43.26;101006.81;5009319;28;20040;-83
2021/08/09 15:04:52;;;;;;;2.20;1.63;;;;;;;24.58;44.16;101005.22;4998974;28;20061;-81
2021/08/09 15:07:18;;;;;;;3.38;1.88;;;;;;;24.28;42.48;101010.97;5015006;28;20045;-84
2021/08/09 15:09:45;;;;;;;2.40;1.80;;;;;;;24.09;44.81;101009.59;5027211;28;20060;-82
2021/08/09 15:12:12;;;;;;;4.95;2.05;;;;;;;23.87;45.76;101012.09;5014286;28;20055;-83
2021/08/09 15:14:38;;;;;;;2.40;1.77;;;;;;;23.61;48.38;101004.97;5029557;28;20502;-83
2021/08/09 15:17:05;;;;;;;3.58;2.20;;;;;;;23.42;47.08;101008.91;5028222;28;20043;-83
2021/08/09 15:19:33;;;;;;;3.00;1.70;;;;;;;23.24;46.32;101010.16;4995060;28;20053;-83
2021/08/09 15:22:00;;;;;;;3.67;1.70;;;;;;;23.07;46.42;101005.91;5014633;28;20103;-81
2021/08/09 15:24:28;;;;;;;2.67;1.83;;;;;;;22.87;48.60;101014.44;5038774;28;20037;-82
2021/08/09 15:26:56;;;;;;;3.75;1.90;;;;;;;22.76;50.12;101007.91;5038328;28;20072;-82
2021/08/09 15:29:23;;;;;;;3.13;2.20;;;;;;;22.77;47.18;101006.06;5029624;28;20049;-80
2021/08/09 15:31:50;;;;;;;2.13;1.83;;;;;;;22.71;47.74;101009.19;4998514;28;20094;-83
2021/08/09 15:34:16;;;;;;;3.83;1.80;;;;;;;22.59;48.80;101009.97;5014615;28;20045;-82
2021/08/09 15:36:43;;;;;;;3.58;1.70;;;;;;;22.50;48.81;101007.88;5031282;28;20628;-82
2021/08/09 15:39:10;;;;;;;4.38;2.30;;;;;;;22.42;49.09;100998.47;5028880;28;20040;-83
2021/08/09 15:41:37;;;;;;;4.97;1.63;;;;;;;22.36;50.31;101004.22;5025755;28;20029;-83
2021/08/09 15:44:04;;;;;;;2.95;2.13;;;;;;;22.29;49.14;100997.53;5018992;28;20065;-81
2021/08/09 15:46:30;;;;;;;3.25;1.80;;;;;;;22.26;48.81;100994.16;5007164;28;20902;-84
2021/08/09 15:48:57;;;;;;;2.60;1.67;;;;;;;22.29;49.26;100999.38;5012139;28;20485;-82
2021/08/09 15:51:24;;;;;;;3.45;2.40;;;;;;;22.43;49.63;100992.09;5022203;28;20052;-82
2021/08/09 15:53:56;;;;;;;3.97;1.70;;;;;;;22.62;49.30;100989.09;5012289;28;20041;-81
2021/08/09 15:56:28;;;;;;;3.38;1.95;;;;;;;23.14;47.28;100987.50;5041960;28;20132;-81
2021/08/09 15:59:09;;;;;;;3.25;1.70;;;;;;;23.34;44.93;100978.91;5018958;28;20041;-83
2021/08/09 16:01:35;;;;;;;2.65;1.95;;;;;;;23.40;47.04;100985.72;5006458;28;20048;-79
2021/08/09 16:04:03;;;;;;;3.22;1.73;;;;;;;23.52;46.52;100985.72;5002762;28;20044;-82
2021/08/09 16:06:30;;;;;;;2.85;1.50;;;;;;;23.43;47.07;100983.66;5037140;28;20090;-81
2021/08/09 16:08:57;;;;;;;5.07;1.85;;;;;;;23.41;45.28;100982.03;5029446;28;20044;-82
2021/08/09 16:11:23;;;;;;;3.35;2.30;;;;;;;23.20;45.22;100981.66;5026982;28;20776;-83
2021/08/09 16:14:10;;;;;;;2.35;1.50;;;;;;;23.10;44.18;100977.88;5017423;28;20132;-79
2021/08/09 16:16:37;;;;;;;1.60;1.35;;;;;;;22.99;47.09;100979.47;5030552;28;20036;-81
2021/08/09 16:19:04;;;;;;;3.42;1.60;;;;;;;23.00;46.16;100977.63;5016069;28;20045;-80
2021/08/09 16:21:31;;;;;;;2.70;1.60;;;;;;;23.06;47.45;100973.66;5032439;28;20049;-82
2021/08/09 16:23:58;;;;;;;4.32;1.80;;;;;;;23.11;46.88;100975.06;5032367;28;20025;-81
2021/08/09 16:26:24;;;;;;;4.18;1.80;;;;;;;23.21;45.99;100973.50;5027424;28;20055;-81
2021/08/09 16:28:51;;;;;;;2.72;1.50;;;;;;;23.31;45.28;100971.03;5032880;28;20647;-81
2021/08/09 16:31:18;;;;;;;2.63;1.38;;;;;;;23.27;45.36;100969.50;5032712;28;20057;-83
2021/08/09 16:33:44;;;;;;;6.95;2.00;;;;;;;23.36;44.55;100965.31;5004262;28;20045;-81
2021/08/09 16:36:11;;;;;;;2.50;1.63;;;;;;;23.38;43.75;100961.56;5014021;28;20048;-82
2021/08/09 16:38:38;;;;;;;2.83;1.58;;;;;;;23.30;44.17;100963.91;4997729;28;20409;-81
2021/08/09 16:41:05;;;;;;;2.35;1.60;;;;;;;23.14;43.11;100960.53;5024684;28;20049;-79
2021/08/09 16:43:36;;;;;;;2.28;1.50;;;;;;;22.97;45.21;100965.25;5027008;28;20037;-82
2021/08/09 16:46:04;;;;;;;2.83;1.77;;;;;;;22.84;44.41;100969.69;5025849;28;20469;-83
2021/08/09 16:48:45;;;;;;;2.63;1.50;;;;;;;22.65;45.73;100969.19;5029732;28;20053;-80
2021/08/09 16:51:14;;;;;;;4.85;1.60;;;;;;;22.52;47.33;100973.63;5027746;28;20740;-81
2021/08/09 16:53:41;;;;;;;2.65;1.75;;;;;;;22.40;45.75;100969.91;5034629;28;20037;-81
2021/08/09 16:56:07;;;;;;;3.13;1.50;;;;;;;22.21;47.43;100967.56;5030630;28;20049;-82
2021/08/09 16:58:34;;;;;;;1.83;1.50;;;;;;;22.03;47.39;100974.03;5029628;28;20036;-82
2021/08/09 17:01:03;;;;;;;1.48;1.30;;;;;;;21.94;47.63;100972.81;5035356;28;20611;-82
2021/08/09 17:03:30;;;;;;;2.75;1.45;;;;;;;21.78;48.57;100974.75;5026415;28;20800;-81
2021/08/09 17:05:57;;;;;;;2.30;1.23;;;;;;;21.68;50.01;100982.50;5018552;28;20111;-81
2021/08/09 17:08:27;;;;;;;2.67;1.65;;;;;;;21.57;50.34;100980.47;5042293;28;20051;-82
2021/08/09 17:10:54;;;;;;;2.58;1.42;;;;;;;21.56;51.21;100983.25;5026968;28;20041;-85
2021/08/09 17:13:21;;;;;;;3.15;1.73;;;;;;;21.37;52.35;100978.16;5018245;28;20040;-84
2021/08/09 17:15:48;;;;;;;2.03;1.38;;;;;;;21.27;53.82;100983.22;5016163;28;20049;-84
2021/08/09 17:18:15;;;;;;;2.80;1.83;;;;;;;21.20;55.02;100981.81;5036202;28;20041;-83
2021/08/09 17:20:43;;;;;;;1.92;1.60;;;;;;;21.11;55.98;100982.38;5031723;28;20469;-83
2021/08/09 17:23:12;;;;;;;3.35;1.67;;;;;;;21.03;52.82;100988.19;5033544;28;20545;-83
2021/08/09 17:25:41;;;;;;;4.45;1.65;;;;;;;21.04;54.68;100972.94;5033998;28;20044;-81
2021/08/09 17:28:07;;;;;;;3.30;2.10;;;;;;;20.92;56.41;100974.50;5028972;28;20057;-84
2021/08/09 17:30:34;;;;;;;3.92;1.92;;;;;;;20.87;59.05;100986.47;5034009;28;20045;-83
2021/08/09 17:33:01;;;;;;;3.45;1.83;;;;;;;20.92;63.23;100984.38;5032022;28;20413;-82
2021/08/09 17:35:27;;;;;;;3.00;1.70;;;;;;;20.77;64.33;100980.78;5033064;28;20481;-83
2021/08/09 17:37:54;;;;;;;2.88;1.88;;;;;;;20.62;64.21;100977.16;5017633;28;20103;-83
2021/08/09 17:40:21;;;;;;;3.10;1.60;;;;;;;20.50;63.58;100983.19;5030871;28;20053;-82
2021/08/09 17:42:49;;;;;;;1.95;1.70;;;;;;;20.42;63.50;100978.22;5011306;28;20605;-83
2021/08/09 17:45:17;;;;;;;3.92;1.70;;;;;;;20.34;64.05;100974.25;5038054;28;20136;-82
2021/08/09 17:47:44;;;;;;;2.38;1.33;;;;;;;20.28;64.03;100979.97;5020534;28;20110;-84
2021/08/09 17:50:11;;;;;;;2.05;1.58;;;;;;;20.20;65.72;100983.94;5028746;28;20045;-83